Terminal Aerodrome Forecast
Issued by NWS Boise, ID

Home | Current Version | Previous Version | Text Only | Print | Product List | Glossary On
Versions: 1 2 3 4 5 6 7 8 9 10 11 12
000
FTUS45 KBOI 241720
TAFBNO
TAF
KBNO 241720Z 2418/2518 VRB06KT P6SM SCT150
     FM242200 31010G20KT P6SM VCTS SCT100CB
     FM250300 27008KT P6SM -SHRA BKN100
     FM250600 VRB03KT P6SM BKN250=

USA.gov is the U.S. government's official web portal to all federal, state and local government web resources and services.